Time;durP1;ratioP1;P1;durP2;ratioP2;P2;SDS_P1;SDS_P2;PMS_P1;PMS_P2;Temp;Humidity;BMP_temperature;BMP_pressure;BME280_temperature;BME280_humidity;BME280_pressure;Samples;Min_cycle;Max_cycle;Signal;HPM_P1;HPM_P2
2022/05/09 00:02:08;;;;;;;7.73;6.27;;;10.50;77.40;;;;;;4962307;28;46368;-64
2022/05/09 00:04:34;;;;;;;8.07;5.20;;;10.30;77.60;;;;;;4962023;28;46424;-65
2022/05/09 00:07:00;;;;;;;5.63;5.03;;;10.20;77.10;;;;;;4962579;28;46343;-65
2022/05/09 00:09:26;;;;;;;7.13;5.60;;;10.20;77.10;;;;;;4962003;28;46405;-65
2022/05/09 00:11:51;;;;;;;7.10;5.83;;;10.10;77.00;;;;;;4962829;28;46390;-64
2022/05/09 00:14:17;;;;;;;6.43;5.67;;;10.10;77.00;;;;;;4963548;28;46451;-64
2022/05/09 00:16:43;;;;;;;8.00;6.57;;;10.10;77.10;;;;;;4964202;28;46413;-64
2022/05/09 00:19:10;;;;;;;8.10;6.63;;;10.10;77.00;;;;;;4960856;28;46360;-64
2022/05/09 00:21:38;;;;;;;9.93;6.53;;;10.10;77.10;;;;;;4962104;28;46440;-64
2022/05/09 00:24:05;;;;;;;9.50;6.90;;;10.20;77.20;;;;;;4961478;28;47107;-64
2022/05/09 00:26:31;;;;;;;8.60;6.70;;;10.20;77.20;;;;;;4961196;28;46390;-64
2022/05/09 00:29:03;;;;;;;7.50;6.63;;;10.10;76.90;;;;;;4961880;28;46419;-64
2022/05/09 00:31:29;;;;;;;8.73;6.93;;;10.10;76.80;;;;;;4962076;28;46327;-64
2022/05/09 00:33:55;;;;;;;8.20;6.83;;;10.20;76.60;;;;;;4961794;28;46015;-64
2022/05/09 00:36:22;;;;;;;8.20;6.63;;;10.20;76.60;;;;;;4963453;28;46225;-64
2022/05/09 00:38:49;;;;;;;7.67;6.57;;;10.20;76.40;;;;;;4961781;28;46637;-64
2022/05/09 00:41:34;;;;;;;8.07;6.53;;;10.30;76.40;;;;;;4961906;28;46503;-63
2022/05/09 00:44:23;;;;;;;6.83;5.63;;;10.30;76.00;;;;;;4961682;28;46743;-64
2022/05/09 00:46:51;;;;;;;6.60;5.77;;;10.30;75.60;;;;;;4960065;28;46372;-64
2022/05/09 00:49:43;;;;;;;6.80;5.77;;;10.40;75.50;;;;;;4957108;28;46466;-65
2022/05/09 00:52:18;;;;;;;7.73;6.27;;;10.40;75.50;;;;;;4955382;28;46274;-64
2022/05/09 00:54:49;;;;;;;7.47;6.47;;;10.40;75.20;;;;;;4958044;28;46959;-64
2022/05/09 00:57:31;;;;;;;8.30;6.47;;;10.50;75.20;;;;;;4958899;28;46427;-64
2022/05/09 01:00:03;;;;;;;7.93;6.70;;;10.50;75.30;;;;;;4959110;28;46590;-64
2022/05/09 01:02:29;;;;;;;7.90;7.00;;;10.50;75.10;;;;;;4960822;28;45877;-64
2022/05/09 01:04:57;;;;;;;7.20;6.17;;;10.50;75.00;;;;;;4961035;28;46966;-64
2022/05/09 01:07:24;;;;;;;8.10;6.33;;;10.50;75.00;;;;;;4960956;28;46463;-66
2022/05/09 01:09:50;;;;;;;4.03;3.50;;;10.50;75.20;;;;;;4958985;28;46492;-64
2022/05/09 01:12:23;;;;;;;4.50;3.70;;;10.40;75.20;;;;;;4961415;28;46539;-65
2022/05/09 01:14:49;;;;;;;10.03;3.83;;;10.40;75.30;;;;;;4960898;28;47076;-64
2022/05/09 01:17:16;;;;;;;4.30;3.40;;;10.30;75.50;;;;;;4959768;28;46327;-64
2022/05/09 01:19:44;;;;;;;3.20;2.90;;;10.30;75.50;;;;;;4960563;28;45827;-64
2022/05/09 01:22:37;;;;;;;3.77;3.27;;;10.30;75.50;;;;;;4961207;28;46435;-64
2022/05/09 01:25:06;;;;;;;4.43;3.90;;;10.20;75.60;;;;;;4959075;28;47599;-65
2022/05/09 01:27:34;;;;;;;4.40;3.57;;;10.20;75.50;;;;;;4958657;28;46470;-65
2022/05/09 01:30:12;;;;;;;3.90;3.10;;;10.20;75.40;;;;;;4960702;28;46459;-66
2022/05/09 01:33:00;;;;;;;4.80;4.13;;;10.20;75.40;;;;;;4960721;28;46427;-64
2022/05/09 01:35:45;;;;;;;5.07;4.23;;;10.20;75.40;;;;;;4958891;28;47132;-65
2022/05/09 01:38:19;;;;;;;4.80;3.93;;;10.20;75.40;;;;;;4960618;28;46632;-65
2022/05/09 01:40:45;;;;;;;5.60;4.63;;;10.10;75.20;;;;;;4958578;28;46388;-64
2022/05/09 01:43:11;;;;;;;5.73;4.83;;;10.10;75.30;;;;;;4959529;28;46387;-64
2022/05/09 01:45:36;;;;;;;6.73;5.30;;;10.10;75.40;;;;;;4958958;28;46849;-64
2022/05/09 01:50:47;;;;;;;6.70;5.47;;;10.00;75.30;;;;;;4958050;28;46576;-65
2022/05/09 01:53:13;;;;;;;7.97;5.80;;;10.00;75.40;;;;;;4952417;28;46153;-64
2022/05/09 01:55:38;;;;;;;7.77;5.90;;;9.90;76.60;;;;;;4958105;28;46138;-64
2022/05/09 01:58:05;;;;;;;6.67;5.20;;;9.90;76.80;;;;;;4959910;28;46457;-64
2022/05/09 02:00:32;;;;;;;5.60;4.63;;;9.80;77.10;;;;;;4955794;28;46540;-64
2022/05/09 02:02:59;;;;;;;6.80;5.90;;;9.70;77.50;;;;;;4959756;28;46491;-65
2022/05/09 02:05:26;;;;;;;5.10;4.50;;;9.70;77.70;;;;;;4957255;28;47203;-64
2022/05/09 02:07:53;;;;;;;6.60;5.20;;;9.60;77.60;;;;;;4955142;28;46430;-65
2022/05/09 02:10:19;;;;;;;6.37;4.83;;;9.50;77.50;;;;;;4956137;28;46414;-65
2022/05/09 02:12:44;;;;;;;6.80;4.40;;;9.40;77.40;;;;;;4955697;28;46431;-65
2022/05/09 02:15:10;;;;;;;5.40;4.80;;;9.40;77.50;;;;;;4954631;28;47571;-65
2022/05/09 02:17:37;;;;;;;5.97;4.77;;;9.30;77.30;;;;;;4956084;28;46290;-64
2022/05/09 02:20:03;;;;;;;5.30;4.23;;;9.30;77.40;;;;;;4956300;28;46602;-63
2022/05/09 02:22:29;;;;;;;6.10;4.97;;;9.20;77.20;;;;;;4952130;28;46499;-65
2022/05/09 02:24:55;;;;;;;5.03;4.00;;;9.20;77.30;;;;;;4955903;28;46842;-64
2022/05/09 02:27:20;;;;;;;6.60;4.97;;;9.10;77.10;;;;;;4952451;28;46498;-64
2022/05/09 02:29:46;;;;;;;11.07;4.93;;;9.10;77.20;;;;;;4951261;28;46509;-63
2022/05/09 02:32:13;;;;;;;6.10;4.67;;;9.00;77.60;;;;;;4954980;28;46792;-64
2022/05/09 02:34:40;;;;;;;5.73;4.80;;;9.00;77.60;;;;;;4953934;28;46086;-65
2022/05/09 02:37:05;;;;;;;6.50;4.87;;;9.00;77.70;;;;;;4957328;28;45913;-65
2022/05/09 02:39:31;;;;;;;8.33;6.60;;;8.90;77.30;;;;;;4957046;28;46380;-64
2022/05/09 02:41:58;;;;;;;5.90;4.60;;;9.00;77.30;;;;;;4960253;28;46447;-64
2022/05/09 02:44:23;;;;;;;7.70;6.13;;;8.90;78.30;;;;;;4961232;28;47935;-65
2022/05/09 02:46:49;;;;;;;6.60;5.23;;;8.90;78.30;;;;;;4963469;28;46585;-64
2022/05/09 02:49:15;;;;;;;6.87;6.00;;;8.90;77.00;;;;;;4963000;28;46413;-64
2022/05/09 02:51:40;;;;;;;7.43;6.03;;;8.90;77.00;;;;;;4960721;28;46391;-64
2022/05/09 02:54:06;;;;;;;7.00;5.50;;;8.90;77.00;;;;;;4960393;28;46422;-65
2022/05/09 02:56:31;;;;;;;8.03;6.23;;;8.90;77.00;;;;;;4964590;28;46424;-65
2022/05/09 02:58:57;;;;;;;7.27;5.53;;;8.90;77.00;;;;;;4957447;28;45876;-65
2022/05/09 03:01:22;;;;;;;7.60;5.80;;;8.90;77.10;;;;;;4960026;28;46527;-63
2022/05/09 03:06:32;;;;;;;7.00;5.83;;;8.80;77.00;;;;;;4963529;28;46454;-65
2022/05/09 03:08:58;;;;;;;8.50;6.17;;;8.70;76.90;;;;;;4962437;28;46496;-65
2022/05/09 03:11:23;;;;;;;7.00;5.60;;;8.70;77.00;;;;;;4963441;28;46147;-65
2022/05/09 03:13:49;;;;;;;6.57;5.70;;;8.70;77.20;;;;;;4962365;28;46503;-65
2022/05/09 03:16:15;;;;;;;8.90;6.60;;;8.70;77.40;;;;;;4963195;28;46484;-65
2022/05/09 03:18:40;;;;;;;9.90;6.10;;;8.60;77.20;;;;;;4962411;28;46438;-65
2022/05/09 03:21:06;;;;;;;8.20;5.90;;;8.60;77.30;;;;;;4963292;28;46428;-64
2022/05/09 03:23:32;;;;;;;8.70;6.20;;;8.60;77.40;;;;;;4961541;28;46407;-64
2022/05/09 03:25:58;;;;;;;7.10;5.47;;;8.60;77.50;;;;;;4962576;28;46372;-64
2022/05/09 03:28:25;;;;;;;7.90;5.87;;;8.60;77.50;;;;;;4960574;28;46376;-64
2022/05/09 03:30:53;;;;;;;8.47;5.23;;;8.50;77.30;;;;;;4962752;28;46374;-64
2022/05/09 03:33:24;;;;;;;13.00;6.23;;;8.50;77.10;;;;;;4962710;28;46385;-64
2022/05/09 03:35:50;;;;;;;10.07;5.60;;;8.50;77.30;;;;;;4962523;28;46349;-64
2022/05/09 03:38:15;;;;;;;10.30;6.80;;;8.60;76.80;;;;;;4962657;28;46424;-64
2022/05/09 03:40:41;;;;;;;7.80;6.20;;;8.50;76.80;;;;;;4962096;28;46606;-64
2022/05/09 03:43:07;;;;;;;8.60;6.13;;;8.60;77.00;;;;;;4961961;28;46415;-64
2022/05/09 03:45:34;;;;;;;7.53;5.57;;;8.50;76.70;;;;;;4962624;28;46414;-64
2022/05/09 03:47:59;;;;;;;6.60;5.37;;;8.50;76.70;;;;;;4962634;28;46395;-64
2022/05/09 03:50:28;;;;;;;6.60;5.17;;;8.50;76.90;;;;;;4962138;28;46450;-65
2022/05/09 03:52:54;;;;;;;6.73;5.37;;;8.50;76.80;;;;;;4961954;28;48236;-64
2022/05/09 03:55:19;;;;;;;9.10;6.20;;;8.50;76.70;;;;;;4962187;28;46370;-65
2022/05/09 03:57:48;;;;;;;8.87;6.30;;;8.60;76.80;;;;;;4962275;28;46642;-64
2022/05/09 04:00:14;;;;;;;19.10;7.77;;;8.60;76.90;;;;;;4951880;28;45840;-65
2022/05/09 04:02:41;;;;;;;31.67;7.47;;;8.60;76.80;;;;;;4957541;28;46488;-64
2022/05/09 04:05:10;;;;;;;41.43;8.80;;;8.60;76.80;;;;;;4961210;28;46391;-64
2022/05/09 04:07:35;;;;;;;18.20;7.80;;;8.60;76.80;;;;;;4961869;28;46403;-64
2022/05/09 04:10:02;;;;;;;9.20;6.73;;;8.60;77.10;;;;;;4960869;28;46074;-64
2022/05/09 04:12:27;;;;;;;10.10;7.00;;;8.50;78.50;;;;;;4962255;28;46438;-63
2022/05/09 04:17:37;;;;;;;15.17;6.60;;;8.60;77.30;;;;;;4962668;28;46485;-63
2022/05/09 04:20:03;;;;;;;10.40;7.20;;;8.60;76.80;;;;;;4962042;28;46301;-64
2022/05/09 04:22:29;;;;;;;8.80;7.00;;;8.70;76.80;;;;;;4962593;28;46440;-63
2022/05/09 04:24:55;;;;;;;15.40;7.47;;;8.90;77.10;;;;;;4962522;28;46527;-63
2022/05/09 04:27:20;;;;;;;11.23;7.30;;;9.00;77.10;;;;;;4962429;28;46555;-64
2022/05/09 04:29:47;;;;;;;9.07;7.10;;;9.10;77.20;;;;;;4958350;28;46499;-63
2022/05/09 04:32:13;;;;;;;8.70;6.77;;;9.30;77.00;;;;;;4960051;28;47095;-63
2022/05/09 04:34:38;;;;;;;10.53;6.10;;;9.40;76.60;;;;;;4962284;28;45868;-65
2022/05/09 04:37:04;;;;;;;6.37;5.30;;;9.50;76.40;;;;;;4954343;28;46402;-64
2022/05/09 04:39:29;;;;;;;9.00;6.67;;;9.60;76.20;;;;;;4956418;28;46264;-64
2022/05/09 04:41:56;;;;;;;17.73;6.70;;;9.80;76.20;;;;;;4958974;28;47154;-64
2022/05/09 04:44:22;;;;;;;12.60;6.60;;;9.90;75.90;;;;;;4957517;28;46438;-65
2022/05/09 04:46:47;;;;;;;8.73;7.50;;;10.00;74.80;;;;;;4960477;28;46352;-64
2022/05/09 04:49:13;;;;;;;7.90;6.37;;;10.20;74.80;;;;;;4960940;28;46480;-64
2022/05/09 04:51:38;;;;;;;9.63;7.63;;;10.40;74.30;;;;;;4961023;28;46291;-64
2022/05/09 04:54:04;;;;;;;6.90;6.03;;;10.90;73.50;;;;;;4958578;28;46545;-63
2022/05/09 04:56:30;;;;;;;7.30;5.97;;;11.60;72.90;;;;;;4960660;28;46442;-64
2022/05/09 04:58:55;;;;;;;7.33;5.77;;;12.20;72.80;;;;;;4959632;28;46387;-64
2022/05/09 05:01:21;;;;;;;12.00;6.00;;;12.80;72.20;;;;;;4960606;28;46421;-65
2022/05/09 05:03:46;;;;;;;15.93;5.50;;;13.40;71.30;;;;;;4956529;28;46510;-64
2022/05/09 05:06:12;;;;;;;18.97;6.17;;;14.10;70.50;;;;;;4961545;28;46494;-63
2022/05/09 05:08:38;;;;;;;9.10;4.87;;;14.60;68.80;;;;;;4960517;28;46422;-64
2022/05/09 05:11:04;;;;;;;20.33;5.30;;;14.80;68.80;;;;;;4959992;28;46367;-63
2022/05/09 05:13:30;;;;;;;9.93;5.30;;;15.30;68.00;;;;;;4958832;28;46347;-63
2022/05/09 05:15:57;;;;;;;7.50;5.10;;;15.70;67.40;;;;;;4957683;28;46681;-63
2022/05/09 05:18:25;;;;;;;14.10;4.53;;;16.20;66.20;;;;;;4959603;28;46513;-63
2022/05/09 05:20:55;;;;;;;6.70;4.20;;;16.90;64.70;;;;;;4959180;28;46413;-63
2022/05/09 05:23:21;;;;;;;5.70;4.50;;;17.20;63.20;;;;;;4959527;28;46318;-62
2022/05/09 05:25:47;;;;;;;6.40;4.00;;;17.60;62.20;;;;;;4960565;28;46204;-62
2022/05/09 05:28:16;;;;;;;5.20;3.67;;;18.10;60.90;;;;;;4960788;28;46424;-63
2022/05/09 05:30:42;;;;;;;5.73;4.20;;;18.70;59.70;;;;;;4957565;28;46438;-63
2022/05/09 05:33:08;;;;;;;5.37;4.17;;;19.20;57.90;;;;;;4956288;28;46384;-63
2022/05/09 05:35:34;;;;;;;5.10;4.20;;;19.60;56.10;;;;;;4960214;28;45915;-64
2022/05/09 05:38:00;;;;;;;5.67;4.43;;;20.00;55.00;;;;;;4962882;28;46490;-62
2022/05/09 05:40:25;;;;;;;5.13;4.27;;;20.40;53.80;;;;;;4961003;28;46459;-63
2022/05/09 05:42:54;;;;;;;5.40;4.50;;;20.60;52.60;;;;;;4959701;28;46488;-63
2022/05/09 05:45:22;;;;;;;7.97;5.57;;;20.90;51.80;;;;;;4954621;28;46542;-62
2022/05/09 05:47:49;;;;;;;8.00;4.90;;;21.10;50.80;;;;;;4956165;28;46458;-63
2022/05/09 05:50:16;;;;;;;6.10;4.47;;;21.30;51.20;;;;;;4956032;28;46921;-62
2022/05/09 05:52:42;;;;;;;6.07;5.00;;;21.50;49.00;;;;;;4959592;28;46395;-63
2022/05/09 05:55:08;;;;;;;9.97;6.50;;;21.90;48.80;;;;;;4958939;28;46556;-65
2022/05/09 05:57:37;;;;;;;8.67;7.37;;;21.70;49.30;;;;;;4960168;28;46577;-64
2022/05/09 06:00:18;;;;;;;6.30;5.50;;;21.80;48.30;;;;;;4959215;28;46526;-64
2022/05/09 06:02:45;;;;;;;10.97;7.83;;;21.70;47.70;;;;;;4958741;28;46361;-63
2022/05/09 06:05:12;;;;;;;13.73;8.33;;;21.60;48.60;;;;;;4960473;28;46469;-63
2022/05/09 06:07:38;;;;;;;10.80;8.50;;;21.10;49.90;;;;;;4961094;28;46346;-63
2022/05/09 06:10:05;;;;;;;12.87;8.40;;;21.00;48.50;;;;;;4959316;28;46625;-63
2022/05/09 06:12:30;;;;;;;12.93;8.40;;;21.00;48.50;;;;;;4959803;28;46495;-63
2022/05/09 06:17:40;;;;;;;10.70;9.10;;;21.30;46.80;;;;;;4960989;28;46429;-62
2022/05/09 06:20:09;;;;;;;13.37;10.30;;;20.50;49.30;;;;;;4962854;28;46186;-62
2022/05/09 06:22:38;;;;;;;11.90;8.40;;;19.40;53.20;;;;;;4962872;28;46486;-62
2022/05/09 06:25:10;;;;;;;13.30;9.87;;;18.90;55.20;;;;;;4963325;28;46451;-62
2022/05/09 06:27:36;;;;;;;11.33;8.60;;;18.40;56.90;;;;;;4963212;28;46414;-62
2022/05/09 06:30:04;;;;;;;14.40;9.60;;;18.80;54.80;;;;;;4961352;28;48151;-62
2022/05/09 06:32:30;;;;;;;13.70;10.37;;;20.00;49.20;;;;;;4959442;28;46366;-63
2022/05/09 06:34:55;;;;;;;14.47;11.87;;;20.20;46.60;;;;;;4958851;28;46387;-62
2022/05/09 06:37:21;;;;;;;16.63;11.73;;;20.30;45.30;;;;;;4963311;28;46490;-63
2022/05/09 06:39:47;;;;;;;15.70;11.73;;;20.30;44.30;;;;;;4960994;28;46456;-63
2022/05/09 06:42:13;;;;;;;16.17;10.90;;;20.80;43.10;;;;;;4955035;28;46565;-63
2022/05/09 06:44:39;;;;;;;13.20;11.77;;;21.10;42.90;;;;;;4960939;28;46758;-62
2022/05/09 06:47:05;;;;;;;13.83;11.03;;;21.60;41.30;;;;;;4961631;28;46832;-64
2022/05/09 06:49:31;;;;;;;17.30;11.63;;;22.10;40.40;;;;;;4961589;28;46765;-64
2022/05/09 06:51:57;;;;;;;15.80;11.70;;;22.30;40.00;;;;;;4962391;28;46217;-65
2022/05/09 06:54:23;;;;;;;15.50;11.90;;;21.80;41.30;;;;;;4959966;28;46535;-62
2022/05/09 06:56:49;;;;;;;17.03;13.07;;;21.10;44.10;;;;;;4962535;28;46475;-61
2022/05/09 06:59:15;;;;;;;18.10;10.70;;;20.10;47.70;;;;;;4962737;28;47031;-62
2022/05/09 07:01:42;;;;;;;18.37;13.33;;;19.50;49.40;;;;;;4962646;28;46545;-63
2022/05/09 07:04:10;;;;;;;20.93;13.90;;;18.80;51.10;;;;;;4960986;28;46616;-63
2022/05/09 07:06:35;;;;;;;18.80;14.70;;;18.40;52.20;;;;;;4961365;28;46868;-63
2022/05/09 07:09:02;;;;;;;26.60;15.73;;;18.20;52.60;;;;;;4960698;28;46715;-63
2022/05/09 07:11:28;;;;;;;22.80;15.63;;;18.10;52.90;;;;;;4960911;28;46629;-65
2022/05/09 07:13:53;;;;;;;17.70;14.37;;;17.90;53.80;;;;;;4961705;28;46503;-64
2022/05/09 07:16:19;;;;;;;19.40;14.53;;;17.90;54.00;;;;;;4962030;28;46407;-64
2022/05/09 07:18:45;;;;;;;23.50;15.50;;;17.90;54.20;;;;;;4960899;28;46479;-62
2022/05/09 07:21:10;;;;;;;20.23;15.67;;;17.80;54.60;;;;;;4962338;28;46521;-64
2022/05/09 07:23:37;;;;;;;17.40;13.60;;;17.90;54.60;;;;;;4961818;28;46407;-64
2022/05/09 07:26:02;;;;;;;22.60;15.77;;;17.70;55.10;;;;;;4963117;28;46343;-62
2022/05/09 07:28:29;;;;;;;18.47;15.37;;;17.90;55.20;;;;;;4960612;28;46449;-63
2022/05/09 07:30:56;;;;;;;31.73;15.80;;;17.80;55.50;;;;;;4960613;28;46365;-64
2022/05/09 07:33:22;;;;;;;20.97;15.43;;;17.90;55.40;;;;;;4956578;28;46518;-64
2022/05/09 07:35:48;;;;;;;21.67;15.50;;;18.10;55.50;;;;;;4959958;28;46329;-65
2022/05/09 07:38:14;;;;;;;23.60;13.83;;;18.00;55.30;;;;;;4961647;28;47182;-63
2022/05/09 07:40:41;;;;;;;21.80;15.53;;;18.20;55.00;;;;;;4961269;28;46453;-63
2022/05/09 07:43:09;;;;;;;21.13;15.20;;;18.30;55.10;;;;;;4951895;28;46457;-63
2022/05/09 07:45:35;;;;;;;19.20;15.23;;;18.30;55.20;;;;;;4955929;28;46403;-64
2022/05/09 07:48:01;;;;;;;22.10;14.87;;;18.30;55.20;;;;;;4960363;28;46479;-63
2022/05/09 07:50:26;;;;;;;20.50;15.33;;;18.30;55.40;;;;;;4961991;28;46421;-62
2022/05/09 07:52:52;;;;;;;20.13;16.20;;;18.50;55.20;;;;;;4960566;28;46347;-65
2022/05/09 07:55:18;;;;;;;20.03;15.87;;;18.50;54.90;;;;;;4962423;28;46445;-63
2022/05/09 07:57:43;;;;;;;22.90;15.30;;;18.70;54.50;;;;;;4961726;28;46432;-63
2022/05/09 08:00:10;;;;;;;19.10;14.30;;;18.70;53.90;;;;;;4959257;28;46826;-63
2022/05/09 08:02:40;;;;;;;22.37;15.20;;;18.90;53.80;;;;;;4959441;28;46289;-63
2022/05/09 08:05:07;;;;;;;19.17;14.83;;;18.90;53.60;;;;;;4960993;28;46561;-64
2022/05/09 08:07:32;;;;;;;21.70;15.60;;;19.00;53.70;;;;;;4960208;28;46060;-64
2022/05/09 08:09:58;;;;;;;19.47;13.10;;;19.00;53.30;;;;;;4958676;28;46294;-63
2022/05/09 08:12:24;;;;;;;18.60;13.60;;;18.90;53.40;;;;;;4952071;28;46553;-64
2022/05/09 08:14:49;;;;;;;16.93;13.67;;;18.90;53.50;;;;;;4959166;28;46548;-63
2022/05/09 08:17:15;;;;;;;18.50;12.60;;;18.90;53.20;;;;;;4960903;28;46411;-62
2022/05/09 08:19:41;;;;;;;16.07;11.97;;;19.00;53.60;;;;;;4960212;28;46523;-62
2022/05/09 08:22:07;;;;;;;14.30;12.10;;;19.00;52.90;;;;;;4961353;28;46379;-63
2022/05/09 08:24:34;;;;;;;16.87;12.93;;;19.00;52.70;;;;;;4960423;28;46407;-63
2022/05/09 08:27:00;;;;;;;26.30;13.27;;;19.20;52.20;;;;;;4960725;28;47473;-63
2022/05/09 08:29:25;;;;;;;19.03;12.37;;;19.10;52.10;;;;;;4962155;28;45878;-63
2022/05/09 08:31:51;;;;;;;16.43;12.87;;;19.20;52.20;;;;;;4959408;28;46689;-62
2022/05/09 08:34:16;;;;;;;18.37;11.83;;;19.20;51.60;;;;;;4959355;28;46401;-62
2022/05/09 08:36:53;;;;;;;23.33;12.70;;;19.20;51.30;;;;;;4960507;28;46035;-60
2022/05/09 08:39:20;;;;;;;17.97;12.17;;;19.20;51.30;;;;;;4958390;28;46511;-63
2022/05/09 08:41:46;;;;;;;19.10;12.83;;;19.10;51.10;;;;;;4960545;28;46460;-62
2022/05/09 08:44:39;;;;;;;23.30;13.00;;;19.20;51.10;;;;;;4959089;28;45824;-62
2022/05/09 08:47:30;;;;;;;17.43;12.83;;;19.40;51.20;;;;;;4960313;28;47289;-62
2022/05/09 08:50:17;;;;;;;17.07;11.87;;;19.40;50.60;;;;;;4959627;28;46460;-60
2022/05/09 08:52:49;;;;;;;17.10;11.80;;;19.40;50.30;;;;;;4948545;28;46373;-63
2022/05/09 08:55:25;;;;;;;16.60;12.23;;;19.40;50.40;;;;;;4952759;28;46493;-62
2022/05/09 08:58:03;;;;;;;17.07;12.87;;;19.50;50.70;;;;;;4959694;28;46681;-61
2022/05/09 09:00:31;;;;;;;16.03;12.77;;;19.50;50.70;;;;;;4956992;28;45780;-62
2022/05/09 09:03:21;;;;;;;19.87;13.90;;;19.40;50.60;;;;;;4963611;28;46472;-60
2022/05/09 09:05:50;;;;;;;19.77;14.30;;;19.40;51.40;;;;;;4972341;28;46336;-61
2022/05/09 09:08:18;;;;;;;18.10;12.93;;;19.60;51.10;;;;;;4974671;28;48742;-62
2022/05/09 09:11:09;;;;;;;18.03;12.50;;;19.80;50.70;;;;;;4959760;28;46678;-62
2022/05/09 09:14:03;;;;;;;15.23;12.33;;;20.00;50.30;;;;;;4957992;28;46405;-62
2022/05/09 09:16:47;;;;;;;21.37;12.87;;;20.00;49.90;;;;;;4958696;28;46378;-61
2022/05/09 09:19:42;;;;;;;15.57;12.63;;;19.80;50.90;;;;;;4957115;28;47121;-63
2022/05/09 09:22:19;;;;;;;17.30;13.13;;;19.60;49.80;;;;;;4960783;28;46380;-62
2022/05/09 09:25:00;;;;;;;22.90;12.83;;;19.60;50.20;;;;;;4960661;28;46385;-62
2022/05/09 09:27:41;;;;;;;16.80;12.93;;;19.60;50.30;;;;;;4960050;28;46403;-61
2022/05/09 09:30:14;;;;;;;18.43;11.00;;;19.70;50.10;;;;;;4960751;28;46597;-61
2022/05/09 09:32:42;;;;;;;23.30;11.80;;;19.70;48.80;;;;;;4959103;28;46644;-62
2022/05/09 09:35:14;;;;;;;17.13;12.30;;;19.80;48.10;;;;;;4959044;28;46385;-62
2022/05/09 09:37:50;;;;;;;21.63;13.10;;;19.80;48.80;;;;;;4959761;28;46556;-62
2022/05/09 09:40:16;;;;;;;18.27;12.60;;;19.70;49.10;;;;;;4959614;28;47176;-61
2022/05/09 09:42:42;;;;;;;18.93;12.10;;;19.50;49.20;;;;;;4960213;28;45830;-63
2022/05/09 09:45:34;;;;;;;17.70;11.90;;;19.50;49.40;;;;;;4960454;28;46475;-63
2022/05/09 09:48:26;;;;;;;21.43;11.30;;;19.60;49.30;;;;;;4957766;28;46394;-62
2022/05/09 09:50:59;;;;;;;17.53;12.60;;;19.90;48.80;;;;;;4958843;28;46383;-62
2022/05/09 09:53:36;;;;;;;16.80;13.23;;;19.90;48.20;;;;;;4963020;28;46450;-61
2022/05/09 09:56:25;;;;;;;16.50;11.97;;;19.80;47.80;;;;;;4963484;28;45847;-62
2022/05/09 09:59:18;;;;;;;15.53;12.70;;;19.60;48.60;;;;;;4962303;28;46378;-61
2022/05/09 10:02:05;;;;;;;17.40;12.53;;;19.80;48.30;;;;;;4960034;28;46602;-63
2022/05/09 10:04:31;;;;;;;14.10;10.90;;;19.80;48.30;;;;;;4961369;28;46192;-62
2022/05/09 10:07:10;;;;;;;23.07;13.00;;;20.10;47.80;;;;;;4959704;28;46311;-62
2022/05/09 10:09:59;;;;;;;17.90;11.70;;;20.40;48.00;;;;;;4957908;28;46371;-63
2022/05/09 10:12:30;;;;;;;16.97;12.03;;;20.30;46.90;;;;;;4960712;28;46388;-62
2022/05/09 10:14:56;;;;;;;21.80;12.03;;;20.00;47.00;;;;;;4959890;28;46412;-62
2022/05/09 10:17:25;;;;;;;15.70;10.70;;;20.00;47.70;;;;;;4961204;28;46384;-61
2022/05/09 10:19:51;;;;;;;13.27;10.87;;;20.20;46.90;;;;;;4962423;28;46561;-64
2022/05/09 10:25:33;;;;;;;17.00;11.87;;;20.10;46.30;;;;;;4962745;28;46429;-62
2022/05/09 10:28:16;;;;;;;15.00;11.40;;;19.90;46.20;;;;;;4963053;28;46447;-62
2022/05/09 10:30:53;;;;;;;14.23;10.90;;;20.20;47.10;;;;;;4962973;28;46414;-62
2022/05/09 10:33:43;;;;;;;16.40;11.23;;;20.60;46.40;;;;;;4959970;28;47061;-63
2022/05/09 10:36:17;;;;;;;12.47;10.40;;;20.70;45.80;;;;;;4960411;28;46436;-62
2022/05/09 10:39:11;;;;;;;16.03;10.77;;;20.60;45.40;;;;;;4961799;28;46401;-61
2022/05/09 10:41:52;;;;;;;14.50;11.10;;;20.50;45.30;;;;;;4953917;28;46272;-62
2022/05/09 10:44:41;;;;;;;13.40;11.27;;;20.50;45.00;;;;;;4959928;28;46773;-61
2022/05/09 10:47:21;;;;;;;18.53;11.13;;;20.60;44.50;;;;;;4960463;28;46773;-62
2022/05/09 10:49:57;;;;;;;15.90;11.97;;;20.80;44.30;;;;;;4961216;28;46312;-62
2022/05/09 10:52:59;;;;;;;14.03;11.00;;;20.90;44.30;;;;;;4962626;28;46687;-62
2022/05/09 10:55:51;;;;;;;17.77;10.63;;;20.80;44.10;;;;;;4961859;28;46427;-61
2022/05/09 10:58:29;;;;;;;13.83;10.20;;;20.90;43.90;;;;;;4957235;28;46438;-60
2022/05/09 11:01:19;;;;;;;15.43;9.87;;;20.80;43.00;;;;;;4961279;28;46316;-61
2022/05/09 11:03:46;;;;;;;14.17;11.00;;;20.70;42.70;;;;;;4960725;28;46777;-63
2022/05/09 11:06:24;;;;;;;20.20;10.17;;;20.50;42.60;;;;;;4960813;28;46602;-62
2022/05/09 11:09:23;;;;;;;18.43;10.77;;;20.50;43.50;;;;;;4961585;28;46643;-62
2022/05/09 11:12:07;;;;;;;15.90;10.37;;;20.90;43.20;;;;;;4965287;28;46587;-61
2022/05/09 11:14:58;;;;;;;14.63;8.90;;;20.80;43.40;;;;;;4962247;28;46412;-61
2022/05/09 11:17:24;;;;;;;13.97;9.23;;;20.90;42.80;;;;;;4961357;28;46433;-63
2022/05/09 11:20:06;;;;;;;12.60;10.27;;;21.00;42.00;;;;;;4960394;28;46460;-61
2022/05/09 11:22:35;;;;;;;18.97;10.00;;;21.20;42.30;;;;;;4958977;28;46800;-63
2022/05/09 11:25:13;;;;;;;22.40;10.90;;;21.20;42.10;;;;;;4961323;28;46639;-62
2022/05/09 11:28:00;;;;;;;16.13;9.37;;;21.10;42.60;;;;;;4959040;28;46530;-61
2022/05/09 11:30:45;;;;;;;10.60;9.50;;;21.20;42.20;;;;;;4959689;28;46486;-61
2022/05/09 11:33:37;;;;;;;11.27;8.90;;;21.10;42.20;;;;;;4955719;28;46626;-62
2022/05/09 11:36:16;;;;;;;15.53;8.77;;;21.10;41.70;;;;;;4959551;28;46456;-61
2022/05/09 11:38:48;;;;;;;13.87;9.90;;;21.20;41.60;;;;;;4957623;28;46466;-62
2022/05/09 11:41:35;;;;;;;15.00;9.73;;;21.30;41.50;;;;;;4954892;28;46684;-61
2022/05/09 11:44:12;;;;;;;10.70;7.63;;;21.50;41.00;;;;;;4953766;28;46527;-62
2022/05/09 11:47:15;;;;;;;10.70;8.37;;;21.70;41.40;;;;;;4954927;28;46589;-62
2022/05/09 11:50:07;;;;;;;13.13;9.70;;;21.90;41.10;;;;;;4953591;28;46705;-61
2022/05/09 11:52:43;;;;;;;14.60;9.00;;;21.60;41.00;;;;;;4940940;28;46492;-62
2022/05/09 11:55:22;;;;;;;14.07;8.33;;;21.60;40.70;;;;;;4954158;28;46407;-60
2022/05/09 11:57:58;;;;;;;14.60;7.63;;;21.60;40.10;;;;;;4959283;28;46320;-61
2022/05/09 12:00:29;;;;;;;12.83;8.10;;;21.50;39.60;;;;;;4959641;28;46518;-62
2022/05/09 12:02:59;;;;;;;11.63;8.73;;;21.40;39.40;;;;;;4961292;28;46438;-63
2022/05/09 12:05:26;;;;;;;11.63;8.13;;;21.10;39.30;;;;;;4962014;28;46411;-63
2022/05/09 12:07:55;;;;;;;21.77;8.50;;;21.40;39.40;;;;;;4962177;28;46209;-62
2022/05/09 12:10:30;;;;;;;14.00;8.33;;;21.50;39.40;;;;;;4961383;28;46495;-63
2022/05/09 12:12:59;;;;;;;9.50;7.87;;;21.60;39.60;;;;;;4959404;28;46340;-62
2022/05/09 12:15:24;;;;;;;10.10;7.80;;;21.80;39.70;;;;;;4962342;28;46372;-61
2022/05/09 12:18:18;;;;;;;11.63;7.07;;;21.80;39.40;;;;;;4960680;28;45939;-62
2022/05/09 12:20:43;;;;;;;10.63;7.07;;;21.60;38.80;;;;;;4948049;28;48857;-62
2022/05/09 12:23:11;;;;;;;11.87;7.50;;;21.50;38.40;;;;;;4960383;28;45789;-61
2022/05/09 12:25:38;;;;;;;11.70;6.87;;;21.20;38.50;;;;;;4961731;28;46371;-61
2022/05/09 12:28:19;;;;;;;11.57;6.83;;;21.20;39.00;;;;;;4960946;28;46371;-61
2022/05/09 12:30:54;;;;;;;7.03;5.80;;;21.30;38.70;;;;;;4960644;28;46384;-62
2022/05/09 12:33:38;;;;;;;6.80;4.97;;;21.50;38.20;;;;;;4959329;28;46430;-61
2022/05/09 12:36:10;;;;;;;13.40;6.40;;;21.40;36.90;;;;;;4961099;28;46454;-62
2022/05/09 12:38:40;;;;;;;10.73;6.47;;;21.70;37.20;;;;;;4960774;28;46451;-61
2022/05/09 12:41:13;;;;;;;13.10;6.80;;;21.70;36.60;;;;;;4960858;28;46188;-62
2022/05/09 12:43:44;;;;;;;14.73;6.63;;;21.60;36.60;;;;;;4955960;28;46395;-62
2022/05/09 12:46:29;;;;;;;7.43;6.20;;;21.70;36.90;;;;;;4960772;28;46407;-62
2022/05/09 12:49:02;;;;;;;10.10;6.93;;;21.70;35.60;;;;;;4959157;28;46444;-61
2022/05/09 12:51:30;;;;;;;10.20;6.43;;;21.80;35.70;;;;;;4960581;28;46571;-61
2022/05/09 12:53:58;;;;;;;8.50;6.37;;;21.90;35.80;;;;;;4959325;28;46766;-61
2022/05/09 12:56:27;;;;;;;18.30;6.83;;;21.90;35.80;;;;;;4960944;28;46455;-61
2022/05/09 12:59:07;;;;;;;11.50;7.50;;;21.90;35.80;;;;;;4957294;28;46416;-61
2022/05/09 13:01:34;;;;;;;8.27;6.97;;;21.60;36.60;;;;;;4960696;28;46661;-62
2022/05/09 13:04:00;;;;;;;11.43;6.80;;;21.60;37.10;;;;;;4960188;28;46372;-61
2022/05/09 13:06:47;;;;;;;9.70;6.33;;;21.50;37.00;;;;;;4961083;28;46416;-61
2022/05/09 13:09:17;;;;;;;10.60;6.60;;;21.40;36.70;;;;;;4960912;28;46487;-62
2022/05/09 13:11:58;;;;;;;9.77;6.90;;;21.50;36.30;;;;;;4959944;28;46406;-62
2022/05/09 13:14:34;;;;;;;9.73;6.70;;;21.40;37.00;;;;;;4959824;28;46713;-62